Main page
METAR-TAF:

METAR-TAF

Airports :

Mykonos, Greece

Mykonos Island National Airport

latitude: 37-26-09N, longitude: 025-20-45E, elevation: 123 m

Current weather observation

The report was made 20 minutes ago, at 04:20 UTC
Wind 16 kt from the North
Temperature 22°C
Humidity 65%
Pressure 1014 hPa
Visibility 10 km or more
no clouds below 1500 m and no cumulonimbus

METAR: LGMK 240420Z 36016KT CAVOK 22/15 Q1014

Time: 07:40 (04:40 UTC)

Forecast

The report was made 2 hours and 40 minutes ago, at 02:00 UTC
Forecast valid from 24 at 03 UTC to 24 at 12 UTC
Wind 20 kt from the North with gusts up to 30 kt
Visibility 10 km or more
Few clouds at a height of 1500 ft
Becoming
from 24 at 10 UTC to 24 at 12 UTC
Wind 28 kt from the North with gusts up to 38 kt

TAF: LGMK 240200Z 2403/2412 36020G30KT 9999 FEW015 BECMG 2410/2412 36028G38KT

Weather observations and forecasts of more than 4000 airports (METAR and TAF reports).

The available stations are represented by yellow and red dots on the map.

Hover mouse over dot to see the name of the station.

Then click to see weather observations and forecasts.

To change the map : click on the green buttons with a black cross to zoom in, on the green button with a dash to zoom out, or on the green arrows for adjacent maps.


METAR-TAF: